createdAt,value
2023-03-18T00:05:21.348Z,21.6
2023-03-18T00:10:59.997Z,21.6
2023-03-18T00:15:49.953Z,21.6
2023-03-18T00:27:04.377Z,21.5
2023-03-18T00:32:40.936Z,21.4
2023-03-18T00:38:34.240Z,21.4
2023-03-18T00:44:28.447Z,21.4
2023-03-18T00:49:49.924Z,21.4
2023-03-18T00:55:27.873Z,21.4
2023-03-18T01:01:22.086Z,21.3
2023-03-18T01:06:59.293Z,21.3
2023-03-18T01:12:37.983Z,21.3
2023-03-18T01:18:33.329Z,21.3
2023-03-18T01:23:54.781Z,21.3
2023-03-18T01:35:24.822Z,21.2
2023-03-18T01:41:16.498Z,21.2
2023-03-18T01:46:54.132Z,21.2
2023-03-18T01:58:08.380Z,21.1
2023-03-18T02:04:01.142Z,21.1
2023-03-18T02:09:55.620Z,21.1
2023-03-18T02:15:32.389Z,21
2023-03-18T02:32:24.763Z,20.9
2023-03-18T02:38:18.131Z,20.9
2023-03-18T02:44:11.736Z,20.9
2023-03-18T02:50:03.205Z,20.9
2023-03-18T02:55:55.477Z,20.9
2023-03-18T03:06:56.159Z,20.9
2023-03-18T03:12:17.587Z,20.9
2023-03-18T03:23:48.146Z,20.8
2023-03-18T03:29:40.212Z,20.8
2023-03-18T03:40:54.948Z,20.8
2023-03-18T03:46:48.403Z,20.8
2023-03-18T03:52:26.364Z,20.8
2023-03-18T03:58:18.657Z,20.8
2023-03-18T04:03:40.366Z,20.7
2023-03-18T04:09:02.537Z,20.7
2023-03-18T04:14:55.140Z,20.7
2023-03-18T04:25:55.110Z,20.6
2023-03-18T04:31:47.500Z,20.6
2023-03-18T04:37:40.542Z,20.6
2023-03-18T04:43:33.649Z,20.7
2023-03-18T04:49:26.603Z,20.7
2023-03-18T04:55:04.490Z,20.7
2023-03-18T05:01:00.896Z,20.6
2023-03-18T05:06:38.723Z,20.6
2023-03-18T05:12:30.592Z,20.6
2023-03-18T05:18:07.965Z,20.6
2023-03-18T05:23:44.657Z,20.6
2023-03-18T05:29:37.420Z,20.5
2023-03-18T05:35:32.062Z,20.5
2023-03-18T05:41:24.382Z,20.5
2023-03-18T05:47:25.554Z,20.5
2023-03-18T05:53:18.268Z,20.5
2023-03-18T05:58:56.984Z,20.5
2023-03-18T06:10:15.083Z,20.5
2023-03-18T06:16:07.607Z,20.5
2023-03-18T06:21:46.102Z,20.5
2023-03-18T06:27:38.717Z,20.5
2023-03-18T06:33:32.956Z,20.5
2023-03-18T06:39:25.582Z,20.5
2023-03-18T06:45:18.789Z,20.5
2023-03-18T06:51:13.404Z,20.5
2023-03-18T06:57:05.040Z,20.5
2023-03-18T07:02:42.955Z,20.5
2023-03-18T07:08:36.020Z,20.5
2023-03-18T07:14:27.500Z,20.4
2023-03-18T07:20:24.115Z,20.4
2023-03-18T07:26:03.443Z,20.4
2023-03-18T07:31:43.710Z,20.5
2023-03-18T07:37:37.856Z,20.4
2023-03-18T07:43:32.859Z,20.4
2023-03-18T07:49:25.615Z,20.4
2023-03-18T07:55:17.961Z,20.4
2023-03-18T08:01:16.102Z,20.4
2023-03-18T08:07:10.250Z,20.4
2023-03-18T08:13:07.764Z,20.4
2023-03-18T08:19:01.099Z,20.5
2023-03-18T08:24:53.869Z,20.5
2023-03-18T08:30:47.439Z,20.5
2023-03-18T08:36:43.636Z,20.5
2023-03-18T08:42:20.046Z,20.5
2023-03-18T08:48:13.260Z,20.5
2023-03-18T08:53:50.448Z,20.5
2023-03-18T08:59:27.327Z,20.6
2023-03-18T09:10:49.987Z,20.6
2023-03-18T09:16:42.098Z,20.6
2023-03-18T09:23:01.464Z,20.6
2023-03-18T09:28:54.336Z,20.6
2023-03-18T09:34:46.251Z,20.6
2023-03-18T09:40:40.864Z,20.6
2023-03-18T09:46:33.664Z,20.7
2023-03-18T09:52:26.733Z,20.7
2023-03-18T09:58:03.763Z,20.7
2023-03-18T10:03:56.683Z,20.7
2023-03-18T10:09:33.491Z,20.7
2023-03-18T10:15:26.518Z,20.7
2023-03-18T10:21:05.109Z,20.7
2023-03-18T10:27:08.563Z,20.8
2023-03-18T10:33:19.740Z,20.8
2023-03-18T10:38:57.811Z,20.8
2023-03-18T10:44:50.148Z,20.8
2023-03-18T10:50:43.852Z,20.8
2023-03-18T10:56:36.009Z,20.8
2023-03-18T11:02:29.208Z,20.9
2023-03-18T11:08:21.885Z,20.8
2023-03-18T11:14:14.918Z,20.8
2023-03-18T11:20:08.268Z,20.9
2023-03-18T11:26:01.309Z,20.9
2023-03-18T11:32:03.697Z,20.9
2023-03-18T11:37:58.670Z,20.9
2023-03-18T11:43:55.734Z,20.9
2023-03-18T11:54:55.192Z,20.9
2023-03-18T12:11:35.386Z,21
2023-03-18T12:17:30.189Z,21.1
2023-03-18T12:40:03.693Z,21.2
2023-03-18T12:45:56.396Z,21.2
2023-03-18T12:57:38.702Z,21.3
2023-03-18T13:03:22.050Z,21.3
2023-03-18T13:09:00.137Z,21.3
2023-03-18T13:14:55.904Z,21.4
2023-03-18T13:20:34.620Z,21.4
2023-03-18T13:26:27.804Z,21.4
2023-03-18T13:32:21.629Z,21.5
2023-03-18T13:38:16.254Z,21.5
2023-03-18T13:44:09.789Z,21.6
2023-03-18T13:49:48.027Z,21.5
2023-03-18T13:55:40.904Z,21.6
2023-03-18T14:01:34.200Z,21.6
2023-03-18T14:07:28.421Z,21.6
2023-03-18T14:13:37.909Z,21.6
2023-03-18T14:35:41.798Z,21.8
2023-03-18T14:41:34.502Z,21.8
2023-03-18T14:47:20.574Z,21.8
2023-03-18T14:53:00.782Z,21.8
2023-03-18T14:58:52.960Z,21.8
2023-03-18T15:04:45.432Z,21.8
2023-03-18T15:22:06.081Z,21.8
2023-03-18T15:33:37.005Z,21.7
2023-03-18T15:39:30.067Z,21.6
2023-03-18T15:51:00.807Z,21.6
2023-03-18T15:56:37.734Z,21.6
2023-03-18T16:02:31.011Z,21.5
2023-03-18T16:08:23.915Z,21.5
2023-03-18T16:14:16.675Z,21.5
2023-03-18T16:19:54.342Z,21.4
2023-03-18T16:25:48.173Z,21.4
2023-03-18T16:31:40.149Z,21.3
2023-03-18T16:43:10.988Z,21.2
2023-03-18T16:54:25.553Z,21.1
2023-03-18T17:00:03.133Z,21.1
2023-03-18T17:11:33.841Z,21.1
2023-03-18T17:23:05.633Z,21.2
2023-03-18T17:28:43.050Z,20.9
2023-03-18T17:34:39.273Z,21.1
2023-03-18T17:40:16.336Z,21.2
2023-03-18T17:51:47.149Z,21.3
2023-03-18T17:57:23.666Z,21.4
2023-03-18T18:03:17.133Z,21.4
2023-03-18T18:14:15.906Z,21.6
2023-03-18T18:20:11.936Z,21.6
2023-03-18T18:31:31.149Z,21.8
2023-03-18T18:36:54.174Z,21.8
2023-03-18T18:42:46.821Z,21.9
2023-03-18T18:48:23.882Z,21.9
2023-03-18T18:54:02.328Z,22
2023-03-18T18:59:55.885Z,22.1
2023-03-18T19:11:27.233Z,22.2
2023-03-18T19:22:58.616Z,22.3
2023-03-18T19:34:36.145Z,22.4
2023-03-18T19:40:12.872Z,22.4
2023-03-18T19:46:08.693Z,22.5
2023-03-18T19:51:48.055Z,22.6
2023-03-18T19:57:40.604Z,22.6
2023-03-18T20:03:37.426Z,22.6
2023-03-18T20:09:31.168Z,22.7
2023-03-18T20:15:23.228Z,22.7
2023-03-18T20:21:16.820Z,22.7
2023-03-18T20:37:38.906Z,22.8
2023-03-18T20:48:23.289Z,22.8
2023-03-18T20:54:16.024Z,22.8
2023-03-18T21:05:46.815Z,22.8
2023-03-18T21:17:18.116Z,22.6
2023-03-18T21:23:23.552Z,22.6
2023-03-18T21:29:31.591Z,22.6
2023-03-18T21:41:05.348Z,22.5
2023-03-18T21:46:43.663Z,22.5
2023-03-18T21:52:50.743Z,22.4
2023-03-18T21:58:42.799Z,22.3
2023-03-18T22:04:36.575Z,22.3
2023-03-18T22:10:13.398Z,22.3
2023-03-18T22:15:34.222Z,22.2
2023-03-18T22:21:28.255Z,22.1
2023-03-18T22:32:12.395Z,22.1
2023-03-18T22:38:06.607Z,22
2023-03-18T22:43:58.718Z,21.9
2023-03-18T22:49:38.147Z,21.9
2023-03-18T22:55:15.008Z,21.9
2023-03-18T23:01:10.142Z,21.9
2023-03-18T23:12:40.385Z,21.8
2023-03-18T23:18:33.611Z,21.8
2023-03-18T23:24:26.892Z,21.8
2023-03-18T23:30:23.959Z,21.7
2023-03-18T23:41:24.008Z,21.6
2023-03-18T23:47:19.192Z,21.6
2023-03-18T23:53:12.565Z,21.6
2023-03-18T23:59:27.312Z,21.6
